Clydebank, United Kingdom
Current Conditions -  °F | °C
As of 7:50 AM on Saturday 25 Oct 2014 (Local Time) from EGPF Reporting Station
Moderate Rain Moderate Rain  
Wind Chill: 50°   Ceiling: 1100
Heat Index: 50°   Visibility: 2.6mi
Dew Point: 48°   Wind: 24mph
Humidity: 94%   Direction: 220°SW
Pressure: 29.65"   Gusts: NA
Location:  55.91°N, 4.4°W
Report Text: EGPF 250650Z AUTO 22021KT 4300 RA BKN011/// BKN024/// //////TCU 10/09 Q1004 RERA
Loading
Personal Weather Stations






























Interactive Weather Map
Tropical Storm Tracking
New forecast layout! Learn more

10-Day Weather Forecast

Advertisements
Track Severe Weather on mobile